createdAt,value
2017-12-01T00:01:57.011Z,73.40
2017-12-01T00:04:24.613Z,73.60
2017-12-01T00:06:52.059Z,73.70
2017-12-01T00:09:19.520Z,73.80
2017-12-01T00:11:47.109Z,74.00
2017-12-01T00:14:15.931Z,74.50
2017-12-01T00:16:43.973Z,74.10
2017-12-01T00:19:12.721Z,74.70
2017-12-01T00:21:40.180Z,74.30
2017-12-01T00:24:07.742Z,74.40
2017-12-01T00:26:35.553Z,74.40
2017-12-01T00:29:03.460Z,74.40
2017-12-01T00:31:31.402Z,74.40
2017-12-01T00:33:58.859Z,74.30
2017-12-01T00:36:26.852Z,74.30
2017-12-01T00:38:54.293Z,74.20
2017-12-01T00:41:21.769Z,74.10
2017-12-01T00:43:49.595Z,74.00
2017-12-01T00:46:17.061Z,73.90
2017-12-01T00:48:44.857Z,73.90
2017-12-01T00:51:12.516Z,73.90
2017-12-01T00:53:39.960Z,73.80
2017-12-01T00:56:07.604Z,73.70
2017-12-01T00:58:35.572Z,73.70
2017-12-01T01:01:03.042Z,73.60
2017-12-01T01:03:30.588Z,73.60
2017-12-01T01:05:58.191Z,73.60
2017-12-01T01:08:25.643Z,73.70
2017-12-01T01:10:53.161Z,73.70
2017-12-01T01:13:20.968Z,73.70
2017-12-01T01:15:48.415Z,73.70
2017-12-01T01:18:15.916Z,73.60
2017-12-01T01:20:43.396Z,73.70
2017-12-01T01:23:10.837Z,73.60
2017-12-01T01:25:38.895Z,73.70
2017-12-01T01:28:07.101Z,74.10
2017-12-01T01:30:34.922Z,73.60
2017-12-01T01:33:03.384Z,74.00
2017-12-01T01:35:30.820Z,73.50
2017-12-01T01:37:58.310Z,73.60
2017-12-01T01:40:26.163Z,73.60
2017-12-01T01:42:54.093Z,73.60
2017-12-01T01:45:21.648Z,73.60
2017-12-01T01:47:49.105Z,73.50
2017-12-01T01:50:16.664Z,73.60
2017-12-01T01:52:44.122Z,73.50
2017-12-01T01:55:11.592Z,73.50
2017-12-01T01:57:39.135Z,73.40
2017-12-01T02:00:06.649Z,73.30
2017-12-01T02:02:34.858Z,74.50
2017-12-01T02:05:02.327Z,73.40
2017-12-01T02:07:29.765Z,73.40
2017-12-01T02:09:57.249Z,73.40
2017-12-01T02:12:25.232Z,73.40
2017-12-01T02:14:52.699Z,73.30
2017-12-01T02:17:20.941Z,73.70
2017-12-01T02:19:48.492Z,73.30
2017-12-01T02:22:16.212Z,73.40
2017-12-01T02:24:44.562Z,74.60
2017-12-01T02:27:12.324Z,73.60
2017-12-01T02:29:40.300Z,73.70
2017-12-01T02:32:08.272Z,73.80
2017-12-01T02:34:35.795Z,73.90
2017-12-01T02:37:03.321Z,73.70
2017-12-01T02:39:31.558Z,74.20
2017-12-01T02:41:59.290Z,73.70
2017-12-01T02:44:27.394Z,73.60
2017-12-01T02:46:54.831Z,73.50
2017-12-01T02:49:23.327Z,73.50
2017-12-01T02:51:50.775Z,73.50
2017-12-01T02:54:18.541Z,73.50
2017-12-01T02:56:45.988Z,73.40
2017-12-01T02:59:13.460Z,73.50
2017-12-01T03:01:40.904Z,73.40
2017-12-01T03:04:08.477Z,73.40
2017-12-01T03:06:35.929Z,73.50
2017-12-01T03:09:03.769Z,73.30
2017-12-01T03:11:32.269Z,73.50
2017-12-01T03:13:59.799Z,73.40
2017-12-01T03:16:28.000Z,73.90
2017-12-01T03:18:55.477Z,73.40
2017-12-01T03:21:23.340Z,73.60
2017-12-01T03:23:50.809Z,73.50
2017-12-01T03:26:18.561Z,73.50
2017-12-01T03:28:46.089Z,73.50
2017-12-01T03:31:13.970Z,73.50
2017-12-01T03:33:41.442Z,73.50
2017-12-01T03:36:08.938Z,73.70
2017-12-01T03:38:37.159Z,74.10
2017-12-01T03:41:04.618Z,73.80
2017-12-01T03:43:32.906Z,73.90
2017-12-01T03:46:00.368Z,73.80
2017-12-01T03:48:28.031Z,73.90
2017-12-01T03:50:55.550Z,73.90
2017-12-01T03:53:23.008Z,73.90
2017-12-01T03:55:51.224Z,74.30
2017-12-01T03:58:18.692Z,74.00
2017-12-01T04:00:46.753Z,74.00
2017-12-01T04:03:14.406Z,74.50
2017-12-01T04:05:42.442Z,74.00
2017-12-01T04:08:09.896Z,74.00
2017-12-01T04:10:37.456Z,74.00
2017-12-01T04:13:05.277Z,74.00
2017-12-01T04:15:33.521Z,74.50
2017-12-01T04:18:00.969Z,74.10
2017-12-01T04:20:28.818Z,74.20
2017-12-01T04:22:56.404Z,74.30
2017-12-01T04:25:24.484Z,74.20
2017-12-01T04:27:51.962Z,74.20
2017-12-01T04:30:19.908Z,74.20
2017-12-01T04:32:48.179Z,74.10
2017-12-01T04:35:15.629Z,74.10
2017-12-01T04:37:43.113Z,74.20
2017-12-01T04:40:10.558Z,74.20
2017-12-01T04:42:40.110Z,74.40
2017-12-01T04:45:08.020Z,74.00
2017-12-01T04:47:35.553Z,73.90
2017-12-01T04:50:03.043Z,74.00
2017-12-01T04:52:30.520Z,74.00
2017-12-01T04:54:59.179Z,74.40
2017-12-01T04:57:26.621Z,74.00
2017-12-01T04:59:54.085Z,74.10
2017-12-01T05:02:22.068Z,74.20
2017-12-01T05:04:49.532Z,74.30
2017-12-01T05:07:17.004Z,74.20
2017-12-01T05:09:45.239Z,74.70
2017-12-01T05:12:12.823Z,74.30
2017-12-01T05:14:40.343Z,74.40
2017-12-01T05:17:07.924Z,74.50
2017-12-01T05:19:35.357Z,74.30
2017-12-01T05:22:02.840Z,74.50
2017-12-01T05:24:30.388Z,74.50
2017-12-01T05:26:58.364Z,74.40
2017-12-01T05:29:26.189Z,74.40
2017-12-01T05:31:54.310Z,74.40
2017-12-01T05:34:22.646Z,74.70
2017-12-01T05:36:50.665Z,74.40
2017-12-01T05:39:18.917Z,74.50
2017-12-01T05:41:46.394Z,74.10
2017-12-01T05:44:14.416Z,74.00
2017-12-01T05:46:41.874Z,74.00
2017-12-01T05:49:09.333Z,74.00
2017-12-01T05:51:36.790Z,73.90
2017-12-01T05:54:04.386Z,73.90
2017-12-01T05:56:31.952Z,73.90
2017-12-01T05:58:59.828Z,73.90
2017-12-01T06:01:28.234Z,73.90
2017-12-01T06:03:55.954Z,74.00
2017-12-01T06:06:23.388Z,74.00
2017-12-01T06:08:51.165Z,74.00
2017-12-01T06:11:18.621Z,74.10
2017-12-01T06:13:46.098Z,74.00
2017-12-01T06:16:13.643Z,74.00
2017-12-01T06:18:41.097Z,74.00
2017-12-01T06:21:08.606Z,73.80
2017-12-01T06:23:36.041Z,73.80
2017-12-01T06:26:04.332Z,74.10
2017-12-01T06:28:31.805Z,73.70
2017-12-01T06:30:59.475Z,74.70
2017-12-01T06:33:27.228Z,76.40
2017-12-01T06:35:54.681Z,76.00
2017-12-01T06:38:22.153Z,74.20
2017-12-01T06:40:49.621Z,73.50
2017-12-01T06:43:17.601Z,73.20
2017-12-01T06:45:45.043Z,73.00
2017-12-01T06:48:12.512Z,73.00
2017-12-01T06:50:40.161Z,73.10
2017-12-01T06:53:07.604Z,73.10
2017-12-01T06:55:35.129Z,73.10
2017-12-01T06:58:03.879Z,73.60
2017-12-01T07:00:31.340Z,73.10
2017-12-01T07:02:58.818Z,73.00
2017-12-01T07:05:27.037Z,73.50
2017-12-01T07:07:54.518Z,73.10
2017-12-01T07:10:22.005Z,73.00
2017-12-01T07:12:50.328Z,74.00
2017-12-01T07:15:18.944Z,73.00
2017-12-01T07:17:46.390Z,73.00
2017-12-01T07:20:13.848Z,73.00
2017-12-01T07:22:41.333Z,73.00
2017-12-01T07:25:10.202Z,73.40
2017-12-01T07:27:37.754Z,73.00
2017-12-01T07:30:05.741Z,73.10
2017-12-01T07:32:33.604Z,73.00
2017-12-01T07:35:01.051Z,72.50
2017-12-01T07:37:28.633Z,73.00
2017-12-01T07:39:56.845Z,73.40
2017-12-01T07:42:24.550Z,72.90
2017-12-01T07:48:05.982Z,73.10
2017-12-01T07:50:34.194Z,73.90
2017-12-01T07:53:01.672Z,73.30
2017-12-01T07:55:29.176Z,73.50
2017-12-01T07:57:57.384Z,74.20
2017-12-01T08:00:24.893Z,73.80
2017-12-01T08:02:53.174Z,74.40
2017-12-01T08:05:21.455Z,74.90
2017-12-01T08:07:50.145Z,74.30
2017-12-01T08:10:18.351Z,74.30
2017-12-01T08:12:45.857Z,73.90
2017-12-01T08:15:13.330Z,73.90
2017-12-01T08:17:40.882Z,73.90
2017-12-01T08:20:09.081Z,74.40
2017-12-01T08:22:48.669Z,74.00
2017-12-01T08:25:28.273Z,74.00
2017-12-01T08:27:56.870Z,74.00
2017-12-01T08:30:24.293Z,74.00
2017-12-01T08:32:52.197Z,73.80
2017-12-01T08:35:19.637Z,73.80
2017-12-01T08:37:47.086Z,74.00
2017-12-01T08:40:14.564Z,73.80
2017-12-01T08:42:42.333Z,74.00
2017-12-01T08:45:10.436Z,73.90
2017-12-01T08:47:38.289Z,73.90
2017-12-01T08:50:05.756Z,74.50
2017-12-01T08:52:33.201Z,73.70
2017-12-01T08:55:00.715Z,73.60
2017-12-01T08:57:28.175Z,73.80
2017-12-01T08:59:55.633Z,73.70
2017-12-01T09:02:23.188Z,73.70
2017-12-01T09:04:50.980Z,73.70
2017-12-01T09:07:18.455Z,74.50
2017-12-01T09:09:45.912Z,73.70
2017-12-01T09:12:13.369Z,73.70
2017-12-01T09:14:41.025Z,73.60
2017-12-01T09:17:08.466Z,73.40
2017-12-01T09:19:35.908Z,73.20
2017-12-01T09:22:03.482Z,73.10
2017-12-01T09:24:30.927Z,73.10
2017-12-01T09:26:58.785Z,73.00
2017-12-01T09:29:26.697Z,72.90
2017-12-01T09:31:54.169Z,72.70
2017-12-01T09:34:22.116Z,72.60
2017-12-01T09:36:49.582Z,72.50
2017-12-01T09:39:17.038Z,72.30
2017-12-01T09:41:44.571Z,72.10
2017-12-01T09:44:12.348Z,72.30
2017-12-01T09:46:40.114Z,72.10
2017-12-01T09:49:07.605Z,71.80
2017-12-01T09:51:35.100Z,71.70
2017-12-01T09:54:02.545Z,71.60
2017-12-01T09:56:31.650Z,71.90
2017-12-01T09:58:59.125Z,71.70
2017-12-01T10:01:26.589Z,71.60
2017-12-01T10:03:54.030Z,71.60
2017-12-01T10:06:21.718Z,71.60
2017-12-01T10:08:49.208Z,71.20
2017-12-01T10:11:17.609Z,68.80
2017-12-01T10:13:45.060Z,68.40
2017-12-01T10:16:12.777Z,66.50
2017-12-01T10:18:40.241Z,62.90
2017-12-01T10:21:07.689Z,61.50
2017-12-01T10:23:35.549Z,61.30
2017-12-01T10:26:03.210Z,61.40
2017-12-01T10:28:30.648Z,59.40
2017-12-01T10:30:58.153Z,58.80
2017-12-01T10:33:26.033Z,59.00
2017-12-01T10:35:53.515Z,59.00
2017-12-01T10:38:20.960Z,59.60
2017-12-01T10:40:48.448Z,59.70
2017-12-01T10:43:16.234Z,58.90
2017-12-01T10:45:43.689Z,59.00
2017-12-01T10:48:12.370Z,59.70
2017-12-01T10:50:39.823Z,59.40
2017-12-01T10:53:07.308Z,58.60
2017-12-01T10:55:35.528Z,58.70
2017-12-01T10:58:03.048Z,58.30
2017-12-01T11:00:31.270Z,59.30
2017-12-01T11:02:58.767Z,58.90
2017-12-01T11:05:26.345Z,59.50
2017-12-01T11:07:53.812Z,60.20
2017-12-01T11:10:21.330Z,59.60
2017-12-01T11:12:48.833Z,59.90
2017-12-01T11:15:16.298Z,59.00
2017-12-01T11:17:44.006Z,57.10
2017-12-01T11:20:11.864Z,56.70
2017-12-01T11:22:39.321Z,56.30
2017-12-01T11:25:06.798Z,55.70
2017-12-01T11:27:34.247Z,55.40
2017-12-01T11:30:02.495Z,55.30
2017-12-01T11:32:30.573Z,55.00
2017-12-01T11:34:58.059Z,55.00
2017-12-01T11:37:26.267Z,55.30
2017-12-01T11:39:53.744Z,54.90
2017-12-01T11:42:21.185Z,56.10
2017-12-01T11:44:49.084Z,56.40
2017-12-01T11:47:17.052Z,57.00
2017-12-01T11:49:44.493Z,56.80
2017-12-01T11:52:11.967Z,55.80
2017-12-01T11:54:39.428Z,55.50
2017-12-01T11:57:06.908Z,54.50
2017-12-01T11:59:35.198Z,55.00
2017-12-01T12:02:02.823Z,54.70
2017-12-01T12:04:30.303Z,54.60
2017-12-01T12:06:58.509Z,54.50
2017-12-01T12:09:26.624Z,54.10
2017-12-01T12:11:54.172Z,53.20
2017-12-01T12:14:21.641Z,54.10
2017-12-01T12:16:49.080Z,54.30
2017-12-01T12:19:16.550Z,55.10
2017-12-01T12:21:43.989Z,55.20
2017-12-01T12:24:11.866Z,55.40
2017-12-01T12:26:39.374Z,55.40
2017-12-01T12:29:07.088Z,55.00
2017-12-01T12:31:34.538Z,55.50
2017-12-01T12:34:02.318Z,55.00
2017-12-01T12:36:29.737Z,54.80
2017-12-01T12:38:57.436Z,55.00
2017-12-01T12:41:24.988Z,54.60
2017-12-01T12:43:53.154Z,55.10
2017-12-01T12:46:20.600Z,57.30
2017-12-01T12:48:48.480Z,57.10
2017-12-01T12:51:15.940Z,56.00
2017-12-01T12:53:43.462Z,54.50
2017-12-01T12:56:10.921Z,53.60
2017-12-01T12:58:38.397Z,53.40
2017-12-01T13:01:05.848Z,51.90
2017-12-01T13:03:33.287Z,51.40
2017-12-01T13:06:00.878Z,51.30
2017-12-01T13:08:28.633Z,52.30
2017-12-01T13:10:56.078Z,52.80
2017-12-01T13:13:23.625Z,53.20
2017-12-01T13:15:51.416Z,53.40
2017-12-01T13:18:19.741Z,56.30
2017-12-01T13:20:47.188Z,55.50
2017-12-01T13:23:15.428Z,57.20
2017-12-01T13:25:43.277Z,56.90
2017-12-01T13:28:10.740Z,57.60
2017-12-01T13:30:38.215Z,58.10
2017-12-01T13:33:06.188Z,58.40
2017-12-01T13:35:33.654Z,58.50
2017-12-01T13:38:01.126Z,59.00
2017-12-01T13:40:28.570Z,59.20
2017-12-01T13:42:57.334Z,59.80
2017-12-01T13:45:24.804Z,59.90
2017-12-01T13:47:52.685Z,60.10
2017-12-01T13:50:20.123Z,60.10
2017-12-01T13:52:47.606Z,60.50
2017-12-01T13:55:15.916Z,61.40
2017-12-01T13:57:43.368Z,61.00
2017-12-01T14:00:10.830Z,61.50
2017-12-01T14:02:38.310Z,61.80
2017-12-01T14:05:05.746Z,61.70
2017-12-01T14:07:33.463Z,61.90
2017-12-01T14:10:01.681Z,62.40
2017-12-01T14:12:29.384Z,62.00
2017-12-01T14:14:57.446Z,62.20
2017-12-01T14:17:24.994Z,62.10
2017-12-01T14:19:52.625Z,62.20
2017-12-01T14:22:20.061Z,62.30
2017-12-01T14:24:47.729Z,62.50
2017-12-01T14:27:15.182Z,62.50
2017-12-01T14:29:42.730Z,62.60
2017-12-01T14:32:10.942Z,62.80
2017-12-01T14:34:38.825Z,62.40
2017-12-01T14:37:06.356Z,62.60
2017-12-01T14:39:34.354Z,62.80
2017-12-01T14:42:01.836Z,62.60
2017-12-01T14:44:29.886Z,62.40
2017-12-01T14:46:57.346Z,62.50
2017-12-01T14:49:25.379Z,62.50
2017-12-01T14:51:52.836Z,62.70
2017-12-01T14:54:20.764Z,62.50
2017-12-01T14:56:48.205Z,62.60
2017-12-01T14:59:15.653Z,62.60
2017-12-01T15:01:43.178Z,62.80
2017-12-01T15:04:10.713Z,62.70
2017-12-01T15:06:38.330Z,62.80
2017-12-01T15:09:05.788Z,62.70
2017-12-01T15:11:34.444Z,63.00
2017-12-01T15:14:02.059Z,62.90
2017-12-01T15:16:30.819Z,63.30
2017-12-01T15:18:58.265Z,62.90
2017-12-01T15:21:25.767Z,63.80
2017-12-01T15:23:53.315Z,63.20
2017-12-01T15:26:20.966Z,63.10
2017-12-01T15:28:48.736Z,62.90
2017-12-01T15:31:16.274Z,62.90
2017-12-01T15:33:44.285Z,62.80
2017-12-01T15:36:12.598Z,63.40
2017-12-01T15:38:40.158Z,63.00
2017-12-01T15:41:07.715Z,63.90
2017-12-01T15:43:36.093Z,63.20
2017-12-01T15:46:03.580Z,63.40
2017-12-01T15:48:31.571Z,63.70
2017-12-01T15:50:59.594Z,64.00
2017-12-01T15:53:27.292Z,64.20
2017-12-01T15:55:55.534Z,64.50
2017-12-01T15:58:23.022Z,64.10
2017-12-01T16:00:50.803Z,63.40
2017-12-01T16:03:18.288Z,63.20
2017-12-01T16:05:45.734Z,63.20
2017-12-01T16:08:13.323Z,63.20
2017-12-01T16:10:40.756Z,63.30
2017-12-01T16:13:08.266Z,63.50
2017-12-01T16:15:36.477Z,63.60
2017-12-01T16:18:04.694Z,64.50
2017-12-01T16:20:32.204Z,64.10
2017-12-01T16:23:00.422Z,64.70
2017-12-01T16:25:28.002Z,64.30
2017-12-01T16:27:55.662Z,64.40
2017-12-01T16:30:24.971Z,64.70
2017-12-01T16:33:00.225Z,64.80
2017-12-01T16:35:21.163Z,65.00
2017-12-01T16:37:49.145Z,65.00
2017-12-01T16:40:17.154Z,65.00
2017-12-01T16:42:46.041Z,65.60
2017-12-01T16:45:14.564Z,65.20
2017-12-01T16:47:42.802Z,65.20
2017-12-01T16:50:10.662Z,64.90
2017-12-01T16:52:38.318Z,65.10
2017-12-01T16:55:05.838Z,65.20
2017-12-01T16:57:33.346Z,65.30
2017-12-01T17:00:01.742Z,65.40
2017-12-01T17:02:30.095Z,65.90
2017-12-01T17:04:57.542Z,65.40
2017-12-01T17:07:25.015Z,65.40
2017-12-01T17:09:52.489Z,65.40
2017-12-01T17:12:20.706Z,65.90
2017-12-01T17:14:48.201Z,65.40
2017-12-01T17:17:15.646Z,65.50
2017-12-01T17:19:43.178Z,65.60
2017-12-01T17:22:10.846Z,65.70
2017-12-01T17:24:38.483Z,65.60
2017-12-01T17:27:05.909Z,65.80
2017-12-01T17:29:34.697Z,67.00
2017-12-01T17:32:02.811Z,65.80
2017-12-01T17:34:30.817Z,66.00
2017-12-01T17:36:58.441Z,66.20
2017-12-01T17:39:25.914Z,66.30
2017-12-01T17:41:53.387Z,66.50
2017-12-01T17:44:21.376Z,66.40
2017-12-01T17:46:48.925Z,66.40
2017-12-01T17:49:16.888Z,67.40
2017-12-01T17:51:44.340Z,66.30
2017-12-01T17:54:11.828Z,66.30
2017-12-01T17:56:39.301Z,66.30
2017-12-01T17:59:06.793Z,66.10
2017-12-01T18:01:34.237Z,66.00
2017-12-01T18:04:01.838Z,66.30
2017-12-01T18:06:29.680Z,66.10
2017-12-01T18:08:57.254Z,66.00
2017-12-01T18:11:24.753Z,66.60
2017-12-01T18:13:52.225Z,66.30
2017-12-01T18:16:19.676Z,66.60
2017-12-01T18:18:47.557Z,66.70
2017-12-01T18:21:15.153Z,66.60
2017-12-01T18:23:43.389Z,66.60
2017-12-01T18:26:11.359Z,66.40
2017-12-01T18:28:39.566Z,66.20
2017-12-01T18:31:07.560Z,65.80
2017-12-01T18:33:35.011Z,66.40
2017-12-01T18:36:02.923Z,65.00
2017-12-01T18:38:30.416Z,65.00
2017-12-01T18:40:57.875Z,64.70
2017-12-01T18:43:25.876Z,65.00
2017-12-01T18:45:54.124Z,65.40
2017-12-01T18:48:21.598Z,65.10
2017-12-01T18:50:49.623Z,65.20
2017-12-01T18:53:17.072Z,65.10
2017-12-01T18:55:44.565Z,65.10
2017-12-01T18:58:12.186Z,65.30
2017-12-01T19:00:39.627Z,65.40
2017-12-01T19:03:07.171Z,65.40
2017-12-01T19:05:36.036Z,65.90
2017-12-01T19:08:03.528Z,65.50
2017-12-01T19:10:31.753Z,65.80
2017-12-01T19:12:59.723Z,65.40
2017-12-01T19:15:27.175Z,65.40
2017-12-01T19:17:54.711Z,65.30
2017-12-01T19:20:22.584Z,65.60
2017-12-01T19:22:50.484Z,65.80
2017-12-01T19:25:18.114Z,66.00
2017-12-01T19:27:45.598Z,66.00
2017-12-01T19:30:13.844Z,66.20
2017-12-01T19:32:41.394Z,66.00
2017-12-01T19:35:09.397Z,65.70
2017-12-01T19:37:36.892Z,65.80
2017-12-01T19:40:04.373Z,65.70
2017-12-01T19:42:31.914Z,65.90
2017-12-01T19:45:00.005Z,65.70
2017-12-01T19:47:27.745Z,65.50
2017-12-01T19:49:55.784Z,65.70
2017-12-01T19:52:23.289Z,66.10
2017-12-01T19:54:50.749Z,66.00
2017-12-01T19:57:18.223Z,66.00
2017-12-01T19:59:45.745Z,66.30
2017-12-01T20:02:13.348Z,66.40
2017-12-01T20:04:41.846Z,66.40
2017-12-01T20:07:09.301Z,66.70
2017-12-01T20:09:36.832Z,66.80
2017-12-01T20:12:04.817Z,66.90
2017-12-01T20:14:32.316Z,66.60
2017-12-01T20:17:00.537Z,67.40
2017-12-01T20:19:28.077Z,67.00
2017-12-01T20:21:55.638Z,67.00
2017-12-01T20:24:23.104Z,67.00
2017-12-01T20:26:50.552Z,66.90
2017-12-01T20:29:18.518Z,66.90
2017-12-01T20:31:46.283Z,66.60
2017-12-01T20:34:13.849Z,66.50
2017-12-01T20:36:42.090Z,66.70
2017-12-01T20:39:10.334Z,67.10
2017-12-01T20:41:37.784Z,66.80
2017-12-01T20:44:05.641Z,66.90
2017-12-01T20:46:33.129Z,66.70
2017-12-01T20:49:01.374Z,66.90
2017-12-01T20:51:29.549Z,66.50
2017-12-01T20:53:57.018Z,66.50
2017-12-01T20:56:24.508Z,66.80
2017-12-01T20:58:53.448Z,67.30
2017-12-01T21:01:20.906Z,66.90
2017-12-01T21:03:48.413Z,66.90
2017-12-01T21:06:16.790Z,66.80
2017-12-01T21:08:45.126Z,67.30
2017-12-01T21:11:12.589Z,67.00
2017-12-01T21:13:40.038Z,67.00
2017-12-01T21:16:08.283Z,67.10
2017-12-01T21:18:35.744Z,67.00
2017-12-01T21:21:04.023Z,67.20
2017-12-01T21:23:31.512Z,67.10
2017-12-01T21:25:59.002Z,67.20
2017-12-01T21:28:26.792Z,67.10
2017-12-01T21:30:54.274Z,67.30
2017-12-01T21:33:21.846Z,67.00
2017-12-01T21:35:50.185Z,66.70
2017-12-01T21:38:17.844Z,66.50
2017-12-01T21:40:45.379Z,66.50
2017-12-01T21:43:13.420Z,66.80
2017-12-01T21:45:40.874Z,66.80
2017-12-01T21:48:08.368Z,66.70
2017-12-01T21:50:37.252Z,67.00
2017-12-01T21:53:05.475Z,67.20
2017-12-01T21:55:33.213Z,66.90
2017-12-01T21:58:01.229Z,67.30
2017-12-01T22:00:28.766Z,67.10
2017-12-01T22:02:56.206Z,66.90
2017-12-01T22:05:23.807Z,67.20
2017-12-01T22:07:52.034Z,68.00
2017-12-01T22:10:19.640Z,67.50
2017-12-01T22:12:47.147Z,67.50
2017-12-01T22:15:15.248Z,67.40
2017-12-01T22:17:42.709Z,67.70
2017-12-01T22:20:10.449Z,67.80
2017-12-01T22:22:37.891Z,67.80
2017-12-01T22:25:05.470Z,68.00
2017-12-01T22:27:32.979Z,68.00
2017-12-01T22:30:02.362Z,68.00
2017-12-01T22:32:30.897Z,67.90
2017-12-01T22:34:58.389Z,67.50
2017-12-01T22:37:26.061Z,67.60
2017-12-01T22:39:53.691Z,67.80
2017-12-01T22:42:21.148Z,68.00
2017-12-01T22:44:49.272Z,68.40
2017-12-01T22:47:17.834Z,68.30
2017-12-01T22:49:45.349Z,68.00
2017-12-01T22:52:13.242Z,68.40
2017-12-01T22:54:40.691Z,68.60
2017-12-01T22:57:08.149Z,68.90
2017-12-01T22:59:35.840Z,69.00
2017-12-01T23:02:03.420Z,69.20
2017-12-01T23:04:30.908Z,70.10
2017-12-01T23:06:58.373Z,69.30
2017-12-01T23:09:26.129Z,69.30
2017-12-01T23:11:53.585Z,69.30
2017-12-01T23:14:21.104Z,69.60
2017-12-01T23:16:49.413Z,70.40
2017-12-01T23:19:17.528Z,70.10
2017-12-01T23:21:44.975Z,70.00
2017-12-01T23:24:12.443Z,70.10
2017-12-01T23:26:39.942Z,70.00
2017-12-01T23:29:07.655Z,69.90
2017-12-01T23:31:35.162Z,70.00
2017-12-01T23:34:03.076Z,69.90
2017-12-01T23:36:30.554Z,69.90
2017-12-01T23:38:58.810Z,70.30
2017-12-01T23:41:26.843Z,69.80
2017-12-01T23:43:54.736Z,69.90
2017-12-01T23:46:22.267Z,69.90
2017-12-01T23:48:49.810Z,69.90
2017-12-01T23:51:18.129Z,69.90
2017-12-01T23:53:45.616Z,70.00
2017-12-01T23:56:13.939Z,70.40
2017-12-01T23:58:41.496Z,70.10
